Time,TemperatureF,DewpointF,PressureIn,WindDirection,WindDirectionDegrees,WindSpeedMPH,WindSpeedGustMPH,Humidity,HourlyPrecipIn,Conditions,Clouds,dailyrainin,SoftwareType,DateUTC
2013-05-15 00:03:00,43.0,33.0,-100.00,WNW,290,1.0,1.0,67,-99.99,,,-99.99,,2013-05-15 04:03:00,
2013-05-15 00:12:00,42.0,33.0,-100.00,WNW,295,1.0,2.0,69,-99.99,,,-99.99,,2013-05-15 04:12:00,
2013-05-15 00:24:00,42.0,33.0,-100.00,SW,235,1.0,1.0,70,-99.99,,,-99.99,,2013-05-15 04:24:00,
2013-05-15 00:33:00,42.0,33.0,-100.00,WNW,285,0.0,2.0,72,-99.99,,,-99.99,,2013-05-15 04:33:00,
2013-05-15 00:43:00,41.0,33.0,-100.00,WNW,290,0.0,1.0,73,-99.99,,,-99.99,,2013-05-15 04:43:00,
2013-05-15 00:52:00,41.0,34.0,-100.00,SW,225,1.0,1.0,74,-99.99,,,-99.99,,2013-05-15 04:52:00,
2013-05-15 01:02:00,41.0,34.0,-100.00,SSW,205,1.0,1.0,75,-99.99,,,-99.99,,2013-05-15 05:02:00,
2013-05-15 01:12:00,40.0,34.0,-100.00,SW,235,0.0,1.0,77,-99.99,,,-99.99,,2013-05-15 05:12:00,
2013-05-15 01:22:00,40.0,33.0,-100.00,SSW,210,0.0,1.0,77,-99.99,,,-99.99,,2013-05-15 05:22:00,
2013-05-15 01:32:00,40.0,33.0,-100.00,WSW,255,0.0,1.0,78,-99.99,,,-99.99,,2013-05-15 05:32:00,
2013-05-15 01:42:00,40.0,33.0,-100.00,West,260,1.0,1.0,78,-99.99,,,-99.99,,2013-05-15 05:42:00,
2013-05-15 01:52:00,40.0,33.0,-100.00,SSW,210,1.0,1.0,78,-99.99,,,-99.99,,2013-05-15 05:52:00,
2013-05-15 02:02:00,40.0,34.0,-100.00,SW,225,1.0,1.0,80,-99.99,,,-99.99,,2013-05-15 06:02:00,
2013-05-15 02:11:00,40.0,34.0,-100.00,SW,225,1.0,1.0,80,-99.99,,,-99.99,,2013-05-15 06:11:00,
2013-05-15 02:22:00,39.0,34.0,-100.00,WSW,240,0.0,2.0,82,-99.99,,,-99.99,,2013-05-15 06:22:00,
2013-05-15 02:32:00,39.0,34.0,-100.00,SW,215,1.0,1.0,81,-99.99,,,-99.99,,2013-05-15 06:32:00,
2013-05-15 02:42:00,39.0,34.0,-100.00,SSW,210,1.0,2.0,81,-99.99,,,-99.99,,2013-05-15 06:42:00,
2013-05-15 02:52:00,39.0,34.0,-100.00,SSW,210,1.0,1.0,82,-99.99,,,-99.99,,2013-05-15 06:52:00,
2013-05-15 03:01:00,39.0,34.0,-100.00,SW,235,0.0,1.0,82,-99.99,,,-99.99,,2013-05-15 07:01:00,
2013-05-15 03:11:00,39.0,34.0,-100.00,SSW,210,1.0,1.0,83,-99.99,,,-99.99,,2013-05-15 07:11:00,
2013-05-15 03:22:00,39.0,34.0,-100.00,SW,230,1.0,1.0,83,-99.99,,,-99.99,,2013-05-15 07:22:00,
2013-05-15 03:32:00,39.0,34.0,-100.00,SSW,210,1.0,2.0,83,-99.99,,,-99.99,,2013-05-15 07:32:00,
2013-05-15 03:42:00,39.0,35.0,-100.00,SSW,200,1.0,1.0,85,-99.99,,,-99.99,,2013-05-15 07:42:00,
2013-05-15 03:52:00,38.0,34.0,-100.00,SW,215,1.0,2.0,86,-99.99,,,-99.99,,2013-05-15 07:52:00,
2013-05-15 04:02:00,38.0,34.0,-100.00,SW,220,1.0,2.0,87,-99.99,,,-99.99,,2013-05-15 08:02:00,
2013-05-15 04:12:00,38.0,34.0,-100.00,West,275,1.0,2.0,88,-99.99,,,-99.99,,2013-05-15 08:12:00,
2013-05-15 04:21:00,38.0,34.0,-100.00,WNW,290,2.0,3.0,88,-99.99,,,-99.99,,2013-05-15 08:21:00,
2013-05-15 04:32:00,39.0,36.0,-100.00,WNW,290,1.0,5.0,88,-99.99,,,-99.99,,2013-05-15 08:32:00,
2013-05-15 04:42:00,38.0,35.0,-100.00,WSW,255,1.0,2.0,88,-99.99,,,-99.99,,2013-05-15 08:42:00,
2013-05-15 04:53:00,37.0,34.0,-100.00,WSW,245,1.0,2.0,89,-99.99,,,-99.99,,2013-05-15 08:53:00,
2013-05-15 05:01:00,37.0,34.0,-100.00,West,270,1.0,2.0,89,-99.99,,,-99.99,,2013-05-15 09:01:00,
2013-05-15 05:12:00,37.0,34.0,-100.00,West,265,1.0,2.0,90,-99.99,,,-99.99,,2013-05-15 09:12:00,
2013-05-15 05:22:00,37.0,34.0,-100.00,SSW,210,1.0,2.0,91,-99.99,,,-99.99,,2013-05-15 09:22:00,
2013-05-15 05:33:00,37.0,34.0,-100.00,West,275,2.0,3.0,90,-99.99,,,-99.99,,2013-05-15 09:33:00,
2013-05-15 05:42:00,36.0,34.0,-100.00,WSW,250,1.0,2.0,90,-99.99,,,-99.99,,2013-05-15 09:42:00,
2013-05-15 05:53:00,36.0,34.0,-100.00,SW,235,0.0,2.0,91,-99.99,,,-99.99,,2013-05-15 09:53:00,
2013-05-15 06:02:00,36.0,34.0,-100.00,SW,225,1.0,2.0,91,-99.99,,,-99.99,,2013-05-15 10:02:00,
2013-05-15 06:13:00,36.0,34.0,-100.00,SW,215,1.0,1.0,91,-99.99,,,-99.99,,2013-05-15 10:13:00,
2013-05-15 06:23:00,36.0,34.0,-100.00,SW,225,1.0,2.0,92,-99.99,,,-99.99,,2013-05-15 10:23:00,
2013-05-15 06:32:00,36.0,34.0,-100.00,SW,220,1.0,3.0,93,-99.99,,,-99.99,,2013-05-15 10:32:00,
2013-05-15 06:42:00,38.0,36.0,-100.00,NW,310,2.0,5.0,93,-99.99,,,-99.99,,2013-05-15 10:42:00,
2013-05-15 06:52:00,38.0,36.0,-100.00,NW,310,2.0,5.0,93,-99.99,,,-99.99,,2013-05-15 10:52:00,
2013-05-15 07:13:00,39.0,36.0,-100.00,NW,310,1.0,5.0,88,-99.99,,,-99.99,,2013-05-15 11:13:00,
2013-05-15 07:38:00,40.0,36.0,-100.00,SSW,210,0.0,1.0,88,-99.99,,,-99.99,,2013-05-15 11:38:00,
2013-05-15 07:49:00,41.0,37.0,-100.00,WNW,290,0.0,1.0,87,-99.99,,,-99.99,,2013-05-15 11:49:00,
2013-05-15 07:57:00,43.0,39.0,-100.00,WNW,295,0.0,1.0,85,-99.99,,,-99.99,,2013-05-15 11:57:00,
2013-05-15 08:11:00,45.0,39.0,-100.00,SE,145,0.0,1.0,78,-99.99,,,-99.99,,2013-05-15 12:11:00,
2013-05-15 08:16:00,48.0,38.0,-100.00,SW,220,0.0,2.0,68,-99.99,,,-99.99,,2013-05-15 12:16:00,
2013-05-15 08:20:00,55.0,36.0,-100.00,West,280,2.0,7.0,48,-99.99,,,-99.99,,2013-05-15 12:20:00,
2013-05-15 08:29:00,48.0,38.0,-100.00,SW,220,0.0,2.0,68,-99.99,,,-99.99,,2013-05-15 12:29:00,
2013-05-15 08:37:00,51.0,37.0,-100.00,West,270,0.0,2.0,58,-99.99,,,-99.99,,2013-05-15 12:37:00,
2013-05-15 08:48:00,53.0,38.0,-100.00,NW,325,1.0,5.0,56,-99.99,,,-99.99,,2013-05-15 12:48:00,
2013-05-15 08:55:00,54.0,36.0,-100.00,West,265,2.0,5.0,50,-99.99,,,-99.99,,2013-05-15 12:55:00,
2013-05-15 09:11:00,55.0,36.0,-100.00,West,280,2.0,7.0,48,-99.99,,,-99.99,,2013-05-15 13:11:00,
2013-05-15 09:19:00,55.0,36.0,-100.00,West,280,2.0,7.0,48,-99.99,,,-99.99,,2013-05-15 13:19:00,
2013-05-15 09:48:00,60.0,33.0,-100.00,North,0,3.0,8.0,36,-99.99,,,-99.99,,2013-05-15 13:48:00,
2013-05-15 10:00:00,60.0,32.0,-100.00,WNW,285,5.0,10.0,35,-99.99,,,-99.99,,2013-05-15 14:00:00,
2013-05-15 10:08:00,61.0,30.0,-100.00,NW,325,7.0,10.0,30,-99.99,,,-99.99,,2013-05-15 14:08:00,
2013-05-15 10:14:00,61.0,31.0,-100.00,WNW,300,5.0,13.0,32,-99.99,,,-99.99,,2013-05-15 14:14:00,
2013-05-15 10:27:00,61.0,30.0,-100.00,NW,320,8.0,16.0,30,-99.99,,,-99.99,,2013-05-15 14:27:00,
2013-05-15 10:39:00,62.0,32.0,-100.00,North,10,5.0,13.0,33,-99.99,,,-99.99,,2013-05-15 14:39:00,
2013-05-15 10:49:00,62.0,33.0,-100.00,North,350,2.0,12.0,33,-99.99,,,-99.99,,2013-05-15 14:49:00,
2013-05-15 11:16:00,63.0,31.0,-100.00,North,0,5.0,14.0,30,-99.99,,,-99.99,,2013-05-15 15:16:00,
2013-05-15 11:29:00,64.0,33.0,-100.00,North,0,3.0,12.0,31,-99.99,,,-99.99,,2013-05-15 15:29:00,
2013-05-15 11:38:00,65.0,34.0,-100.00,WNW,295,8.0,14.0,32,-99.99,,,-99.99,,2013-05-15 15:38:00,
2013-05-15 11:48:00,65.0,33.0,-100.00,WNW,290,7.0,14.0,31,-99.99,,,-99.99,,2013-05-15 15:48:00,
2013-05-15 11:57:00,66.0,35.0,-100.00,North,355,3.0,13.0,32,-99.99,,,-99.99,,2013-05-15 15:57:00,
2013-05-15 12:10:00,66.0,36.0,-100.00,WNW,290,5.0,14.0,33,-99.99,,,-99.99,,2013-05-15 16:10:00,
2013-05-15 12:20:00,65.0,35.0,-100.00,NE,50,5.0,16.0,33,-99.99,,,-99.99,,2013-05-15 16:20:00,
2013-05-15 12:24:00,65.0,35.0,-100.00,NW,320,8.0,14.0,32,-99.99,,,-99.99,,2013-05-15 16:24:00,
2013-05-15 12:38:00,66.0,37.0,-100.00,NNW,335,5.0,12.0,34,-99.99,,,-99.99,,2013-05-15 16:38:00,
2013-05-15 12:49:00,66.0,34.0,-100.00,WNW,300,8.0,15.0,31,-99.99,,,-99.99,,2013-05-15 16:49:00,
2013-05-15 12:54:00,66.0,34.0,-100.00,WNW,300,8.0,15.0,31,-99.99,,,-99.99,,2013-05-15 16:54:00,
2013-05-15 13:49:00,64.0,34.0,-100.00,NNW,335,8.0,17.0,33,-99.99,,,-99.99,,2013-05-15 17:49:00,
2013-05-15 13:59:00,65.0,35.0,-100.00,West,280,8.0,14.0,33,-99.99,,,-99.99,,2013-05-15 17:59:00,
2013-05-15 14:07:00,65.0,36.0,-100.00,NNW,345,6.0,15.0,34,-99.99,,,-99.99,,2013-05-15 18:07:00,
2013-05-15 14:28:00,66.0,36.0,-100.00,NW,315,7.0,16.0,33,-99.99,,,-99.99,,2013-05-15 18:28:00,
2013-05-15 14:38:00,67.0,36.0,-100.00,NNW,340,10.0,16.0,31,-99.99,,,-99.99,,2013-05-15 18:38:00,
2013-05-15 14:47:00,67.0,38.0,-100.00,NNW,335,5.0,16.0,34,-99.99,,,-99.99,,2013-05-15 18:47:00,
2013-05-15 15:09:00,65.0,36.0,-100.00,WNW,300,9.0,15.0,34,-99.99,,,-99.99,,2013-05-15 19:09:00,
2013-05-15 15:16:00,66.0,36.0,-100.00,WNW,295,7.0,16.0,33,-99.99,,,-99.99,,2013-05-15 19:16:00,
2013-05-15 15:30:00,65.0,36.0,-100.00,WNW,295,12.0,21.0,34,-99.99,,,-99.99,,2013-05-15 19:30:00,
2013-05-15 15:39:00,65.0,36.0,-100.00,NNW,330,7.0,16.0,33,-99.99,,,-99.99,,2013-05-15 19:39:00,
2013-05-15 15:47:00,64.0,39.0,-100.00,NNW,330,7.0,14.0,40,-99.99,,,-99.99,,2013-05-15 19:47:00,
2013-05-15 15:55:00,62.0,40.0,-100.00,WNW,295,7.0,17.0,43,-99.99,,,-99.99,,2013-05-15 19:55:00,
2013-05-15 16:10:00,62.0,40.0,-100.00,NW,305,7.0,15.0,43,-99.99,,,-99.99,,2013-05-15 20:10:00,
2013-05-15 16:20:00,63.0,39.0,-100.00,NW,320,7.0,16.0,41,-99.99,,,-99.99,,2013-05-15 20:20:00,
2013-05-15 16:30:00,62.0,39.0,-100.00,WNW,285,6.0,15.0,43,-99.99,,,-99.99,,2013-05-15 20:30:00,
2013-05-15 16:40:00,61.0,41.0,-100.00,NW,305,12.0,18.0,47,-99.99,,,-99.99,,2013-05-15 20:40:00,
2013-05-15 16:47:00,59.0,44.0,-100.00,WNW,300,9.0,20.0,59,-99.99,,,-99.99,,2013-05-15 20:47:00,
2013-05-15 16:53:00,56.0,48.0,-100.00,NW,320,9.0,17.0,73,-99.99,,,-99.99,,2013-05-15 20:53:00,
2013-05-15 17:09:00,57.0,50.0,-100.00,NNW,330,6.0,18.0,78,-99.99,,,-99.99,,2013-05-15 21:09:00,
2013-05-15 17:21:00,57.0,49.0,-100.00,SW,220,3.0,13.0,75,-99.99,,,-99.99,,2013-05-15 21:21:00,
2013-05-15 17:28:00,57.0,49.0,-100.00,SW,220,3.0,13.0,75,-99.99,,,-99.99,,2013-05-15 21:28:00,
2013-05-15 17:41:00,57.0,49.0,-100.00,NW,310,5.0,12.0,74,-99.99,,,-99.99,,2013-05-15 21:41:00,
2013-05-15 17:51:00,57.0,49.0,-100.00,WSW,250,5.0,12.0,73,-99.99,,,-99.99,,2013-05-15 21:51:00,
2013-05-15 17:56:00,58.0,49.0,-100.00,West,265,3.0,12.0,74,-99.99,,,-99.99,,2013-05-15 21:56:00,
2013-05-15 18:30:00,58.0,50.0,-100.00,NW,310,8.0,16.0,76,-99.99,,,-99.99,,2013-05-15 22:30:00,
2013-05-15 18:40:00,58.0,51.0,-100.00,West,275,7.0,16.0,77,-99.99,,,-99.99,,2013-05-15 22:40:00,
2013-05-15 18:50:00,57.0,51.0,-100.00,NW,310,10.0,17.0,78,-99.99,,,-99.99,,2013-05-15 22:50:00,
2013-05-15 18:55:00,57.0,51.0,-100.00,NW,310,10.0,17.0,78,-99.99,,,-99.99,,2013-05-15 22:55:00,
2013-05-15 19:09:00,57.0,51.0,-100.00,West,280,5.0,16.0,79,-99.99,,,-99.99,,2013-05-15 23:09:00,
2013-05-15 19:39:00,57.0,51.0,-100.00,WNW,290,7.0,18.0,80,-99.99,,,-99.99,,2013-05-15 23:39:00,
2013-05-15 19:50:00,57.0,51.0,-100.00,North,5,6.0,15.0,79,-99.99,,,-99.99,,2013-05-15 23:50:00,
2013-05-15 20:27:00,58.0,51.0,-100.00,NW,315,6.0,16.0,77,-99.99,,,-99.99,,2013-05-16 00:27:00,
2013-05-15 20:37:00,58.0,51.0,-100.00,NW,315,6.0,16.0,77,-99.99,,,-99.99,,2013-05-16 00:37:00,
2013-05-15 21:08:00,58.0,52.0,-100.00,NNW,335,5.0,20.0,80,-99.99,,,-99.99,,2013-05-16 01:08:00,
2013-05-15 21:19:00,58.0,51.0,-100.00,North,0,5.0,18.0,80,-99.99,,,-99.99,,2013-05-16 01:19:00,
2013-05-15 21:30:00,57.0,52.0,-100.00,NW,325,6.0,15.0,81,-99.99,,,-99.99,,2013-05-16 01:30:00,
2013-05-15 21:49:00,57.0,52.0,-100.00,NW,320,5.0,14.0,82,-99.99,,,-99.99,,2013-05-16 01:49:00,
2013-05-15 21:50:00,56.0,52.0,-100.00,NNW,345,6.0,12.0,85,-99.99,,,-99.99,,2013-05-16 01:50:00,
2013-05-15 21:56:00,57.0,52.0,-100.00,NNW,345,5.0,12.0,82,-99.99,,,-99.99,,2013-05-16 01:56:00,
2013-05-15 22:08:00,57.0,52.0,-100.00,North,355,5.0,13.0,82,-99.99,,,-99.99,,2013-05-16 02:08:00,
2013-05-15 22:18:00,57.0,52.0,-100.00,NW,320,6.0,13.0,83,-99.99,,,-99.99,,2013-05-16 02:18:00,
2013-05-15 22:28:00,57.0,52.0,-100.00,NW,315,6.0,13.0,84,-99.99,,,-99.99,,2013-05-16 02:28:00,
2013-05-15 22:47:00,56.0,52.0,-100.00,NNW,345,6.0,12.0,85,-99.99,,,-99.99,,2013-05-16 02:47:00,
2013-05-15 23:07:00,56.0,52.0,-100.00,NNW,340,3.0,8.0,86,-99.99,,,-99.99,,2013-05-16 03:07:00,
2013-05-15 23:17:00,56.0,52.0,-100.00,NNW,340,2.0,7.0,87,-99.99,,,-99.99,,2013-05-16 03:17:00,
2013-05-15 23:27:00,56.0,52.0,-100.00,West,275,2.0,7.0,88,-99.99,,,-99.99,,2013-05-16 03:27:00,
2013-05-15 23:46:00,55.0,52.0,-100.00,NW,310,1.0,5.0,90,-99.99,,,-99.99,,2013-05-16 03:46:00,
2013-05-15 23:56:00,54.0,52.0,-100.00,NW,305,1.0,5.0,90,-99.99,,,-99.99,,2013-05-16 03:56:00,